Kharkov, Ukraine
Current Conditions -  °F | °C
As of 5:30 PM on Thursday 30 Oct 2014 (Local Time) from UKHH Reporting Station
Clear Clear  
Wind Chill: 43°   Ceiling: Unl
Heat Index: 46°   Visibility: 6mi
Dew Point: 18°   Wind: 7mph
Humidity: 32%   Direction: 60°ENE
Pressure: 30.21"   Gusts: NA
Location:  49.99°N, 36.21°E
Report Text: UKHH 301430Z 06003MPS CAVOK 08/M08 Q1023 070///65 NOSIG
Loading
Personal Weather Stations






























Interactive Weather Map
Tropical Storm Tracking
New forecast layout! Learn more

10-Day Weather Forecast

Advertisements
Track Severe Weather on mobile